Time;durP1;ratioP1;P1;durP2;ratioP2;P2;SDS_P1;SDS_P2;PMS_P1;PMS_P2;Temp;Humidity;BMP_temperature;BMP_pressure;BME280_temperature;BME280_humidity;BME280_pressure;Samples;Min_cycle;Max_cycle;Signal;HPM_P1;HPM_P2
2022/03/21 14:39:33;;;;;;;13.32;8.20;;;;;;;14.51;14.23;102220.72;5008993;28;106438;-73
2022/03/21 14:41:58;;;;;;;12.02;7.68;;;;;;;14.51;14.53;102235.97;5005289;28;105961;-75
2022/03/21 14:44:24;;;;;;;11.77;7.60;;;;;;;14.38;14.65;102222.91;5004076;28;106263;-76
2022/03/21 14:46:50;;;;;;;11.50;8.25;;;;;;;14.39;14.90;102217.38;5004435;28;106643;-75
2022/03/21 14:49:15;;;;;;;16.23;8.90;;;;;;;14.29;15.13;102215.72;5004476;28;106203;-75
2022/03/21 14:51:41;;;;;;;14.88;8.52;;;;;;;14.30;15.26;102212.06;5004636;28;106028;-72
2022/03/21 14:54:06;;;;;;;16.52;9.05;;;;;;;14.29;14.54;102215.72;5005141;28;105965;-72
2022/03/21 14:56:32;;;;;;;15.15;8.32;;;;;;;14.26;14.93;102202.63;5004203;28;106556;-72
2022/03/21 14:58:58;;;;;;;12.02;8.07;;;;;;;14.28;14.42;102195.25;5003316;28;106029;-71
2022/03/21 15:01:24;;;;;;;12.15;7.70;;;;;;;14.19;14.51;102194.31;5005214;28;106282;-71
2022/03/21 15:03:50;;;;;;;14.77;8.10;;;;;;;14.11;14.82;102197.69;5004668;28;106303;-72
2022/03/21 15:06:15;;;;;;;12.52;7.80;;;;;;;14.13;14.77;102195.69;5004089;28;106070;-72
2022/03/21 15:08:41;;;;;;;14.43;7.95;;;;;;;14.07;14.81;102193.63;5004135;28;106455;-73
2022/03/21 15:11:07;;;;;;;10.70;7.68;;;;;;;13.97;15.33;102188.28;5004643;28;106133;-73
2022/03/21 15:13:33;;;;;;;14.05;8.30;;;;;;;13.88;15.00;102186.47;5005027;28;106571;-72
2022/03/21 15:15:58;;;;;;;14.43;8.98;;;;;;;13.74;14.95;102190.44;5004337;28;105913;-71
2022/03/21 15:18:23;;;;;;;14.00;8.18;;;;;;;13.66;15.55;102179.56;5003842;28;105936;-72
2022/03/21 15:20:49;;;;;;;14.65;7.38;;;;;;;13.60;15.40;102175.63;5005046;28;105860;-74
2022/03/21 15:23:14;;;;;;;9.88;6.38;;;;;;;13.52;15.48;102179.00;5004078;28;106249;-72
2022/03/21 15:25:40;;;;;;;8.93;6.35;;;;;;;13.45;14.87;102179.69;5004298;28;106059;-72
2022/03/21 15:28:09;;;;;;;12.25;8.32;;;;;;;13.31;15.38;102178.25;5003617;28;106325;-72
2022/03/21 15:30:35;;;;;;;11.55;7.40;;;;;;;13.15;15.46;102171.63;5004487;28;106051;-73
2022/03/21 15:33:00;;;;;;;13.90;8.60;;;;;;;13.02;15.71;102179.06;5004070;28;106169;-74
2022/03/21 15:35:25;;;;;;;10.18;7.00;;;;;;;12.93;16.06;102179.88;5003760;28;106392;-71
2022/03/21 15:43:18;;;;;;;14.30;8.27;;;;;;;12.53;15.56;102185.13;5004115;28;105833;-73
2022/03/21 15:45:44;;;;;;;14.18;8.32;;;;;;;12.43;16.27;102192.22;5004046;28;105996;-73
2022/03/21 15:48:09;;;;;;;12.07;8.02;;;;;;;12.34;16.42;102188.53;5003472;28;105901;-72
2022/03/21 15:50:35;;;;;;;12.13;7.95;;;;;;;12.26;16.81;102187.50;4992773;28;106014;-73
2022/03/21 15:53:04;;;;;;;12.10;8.52;;;;;;;12.18;16.65;102183.66;4988942;28;106814;-74
2022/03/21 15:55:29;;;;;;;14.60;8.55;;;;;;;12.11;17.08;102178.97;4990007;28;106549;-73
2022/03/21 15:57:58;;;;;;;12.82;7.80;;;;;;;12.02;16.48;102180.63;4990093;28;106171;-73
2022/03/21 16:00:26;;;;;;;11.75;8.30;;;;;;;11.92;16.98;102174.31;4990983;28;105968;-74
2022/03/21 16:02:53;;;;;;;11.68;7.88;;;;;;;11.85;16.33;102169.50;4988597;28;106249;-75
2022/03/21 16:05:19;;;;;;;11.40;7.70;;;;;;;11.82;17.00;102175.13;4989507;28;107031;-74
2022/03/21 16:07:45;;;;;;;10.90;7.45;;;;;;;11.75;16.95;102183.78;4989591;28;106238;-74
2022/03/21 16:10:12;;;;;;;14.57;8.07;;;;;;;11.69;17.29;102174.47;4990320;28;106376;-74
2022/03/21 16:12:38;;;;;;;15.48;9.07;;;;;;;11.60;17.06;102176.06;4989764;28;105969;-74
2022/03/21 16:15:06;;;;;;;17.80;8.82;;;;;;;11.53;17.45;102172.22;4989123;28;106848;-74
2022/03/21 16:17:34;;;;;;;15.80;8.73;;;;;;;11.47;17.14;102186.94;4989482;28;106052;-74
2022/03/21 16:19:59;;;;;;;12.88;8.30;;;;;;;11.41;17.76;102179.41;4990716;28;106059;-73
2022/03/21 16:22:25;;;;;;;15.85;9.20;;;;;;;11.35;17.81;102177.25;4989754;28;106205;-73
2022/03/21 16:24:50;;;;;;;14.35;8.43;;;;;;;11.29;18.30;102178.63;4990137;28;106095;-74
2022/03/21 16:27:15;;;;;;;15.73;9.30;;;;;;;11.21;18.27;102170.41;4990055;28;106139;-75
2022/03/21 16:29:44;;;;;;;16.10;9.30;;;;;;;11.15;18.25;102174.41;4990407;28;106377;-74
2022/03/21 16:32:13;;;;;;;14.95;9.15;;;;;;;11.06;18.20;102172.50;4990295;28;106036;-74
2022/03/21 16:34:39;;;;;;;16.03;9.57;;;;;;;10.98;18.27;102165.09;4989381;28;107198;-75
2022/03/21 16:37:05;;;;;;;19.90;11.07;;;;;;;10.90;18.68;102172.03;4990156;28;105904;-74
2022/03/21 16:39:31;;;;;;;14.82;9.15;;;;;;;10.77;18.52;102172.16;4989475;28;105952;-74
2022/03/21 16:41:56;;;;;;;16.45;9.32;;;;;;;10.66;18.90;102171.22;4989959;28;105963;-75
2022/03/21 16:44:22;;;;;;;13.40;9.90;;;;;;;10.57;19.03;102179.94;4989493;28;106567;-75
2022/03/21 16:46:47;;;;;;;20.33;10.60;;;;;;;10.48;19.20;102178.88;4989394;28;105853;-75
2022/03/21 16:49:13;;;;;;;19.75;10.25;;;;;;;10.38;19.42;102177.88;4989768;28;106198;-75
2022/03/21 16:51:38;;;;;;;17.70;10.02;;;;;;;10.29;19.66;102178.56;4989068;28;106200;-75
2022/03/21 16:54:03;;;;;;;16.85;10.35;;;;;;;10.20;19.62;102171.28;4988907;28;105981;-75
2022/03/21 16:56:29;;;;;;;19.35;11.60;;;;;;;10.09;19.94;102172.97;4988863;28;106018;-75
2022/03/21 16:58:54;;;;;;;21.08;11.40;;;;;;;9.99;20.24;102171.97;4989814;28;106454;-74
2022/03/21 17:01:20;;;;;;;16.80;10.30;;;;;;;9.86;20.07;102168.56;4987851;28;106238;-74
2022/03/21 17:03:46;;;;;;;19.60;10.90;;;;;;;9.74;20.07;102165.84;4988971;28;106596;-74
2022/03/21 17:06:13;;;;;;;18.65;10.23;;;;;;;9.62;20.68;102170.31;4988300;28;105959;-74
2022/03/21 17:08:38;;;;;;;19.80;11.32;;;;;;;9.52;20.83;102174.63;4988963;28;106022;-75
2022/03/21 17:11:03;;;;;;;17.98;10.07;;;;;;;9.40;20.95;102173.72;4988487;28;105859;-74
2022/03/21 17:13:29;;;;;;;19.98;11.18;;;;;;;9.28;20.83;102170.16;4987912;28;105936;-75
2022/03/21 17:15:55;;;;;;;20.63;11.30;;;;;;;9.21;21.25;102166.25;4987922;28;105934;-74
2022/03/21 17:23:40;;;;;;;18.38;11.93;;;;;;;8.89;21.05;102172.09;4986421;28;106569;-75
2022/03/21 17:26:06;;;;;;;46.83;30.50;;;;;;;8.84;21.14;102178.72;4988236;28;105927;-74
2022/03/21 17:28:32;;;;;;;38.95;21.52;;;;;;;8.74;21.99;102174.06;4987988;28;106050;-74
2022/03/21 17:30:58;;;;;;;27.30;18.30;;;;;;;8.62;22.03;102172.25;4988541;28;106258;-74
2022/03/21 17:33:23;;;;;;;31.85;17.20;;;;;;;8.52;21.96;102180.03;4987846;28;105983;-74
2022/03/21 17:35:50;;;;;;;26.25;16.52;;;;;;;8.46;21.97;102173.34;4987928;28;106015;-74
2022/03/21 17:38:18;;;;;;;23.67;14.90;;;;;;;8.47;22.17;102179.50;4988150;28;105975;-73
2022/03/21 17:40:44;;;;;;;27.42;14.77;;;;;;;8.49;22.60;102179.41;4988361;28;105929;-73
2022/03/21 17:43:11;;;;;;;19.50;12.45;;;;;;;8.48;22.02;102177.72;4987774;28;106945;-74
2022/03/21 17:45:39;;;;;;;23.23;14.40;;;;;;;8.44;22.47;102177.88;4987770;28;105988;-74
2022/03/21 17:48:05;;;;;;;21.13;13.40;;;;;;;8.35;22.18;102169.72;4988116;28;106008;-75
2022/03/21 17:50:30;;;;;;;19.90;13.43;;;;;;;8.27;22.60;102180.88;4987261;28;106146;-74
2022/03/21 17:52:57;;;;;;;30.50;16.08;;;;;;;8.18;23.17;102181.53;4987602;28;105944;-74
2022/03/21 17:55:22;;;;;;;34.13;15.85;;;;;;;8.07;22.53;102175.13;4987550;28;106464;-74
2022/03/21 17:57:48;;;;;;;20.65;13.00;;;;;;;8.01;23.30;102175.56;4988099;28;106175;-75
2022/03/21 18:00:18;;;;;;;21.30;14.27;;;;;;;7.93;23.22;102175.22;4987559;28;105894;-74
2022/03/21 18:02:44;;;;;;;32.08;15.65;;;;;;;7.83;22.93;102177.63;4987460;28;106497;-74
2022/03/21 18:05:09;;;;;;;21.98;15.02;;;;;;;7.74;23.67;102178.28;4987257;28;106047;-75
2022/03/21 18:07:35;;;;;;;42.97;19.83;;;;;;;7.63;23.83;102182.47;4988255;28;106088;-73
2022/03/21 18:10:00;;;;;;;38.38;19.77;;;;;;;7.56;23.85;102180.31;4987804;28;106670;-74
2022/03/21 18:12:26;;;;;;;36.15;22.98;;;;;;;7.47;23.98;102187.09;4986837;28;106731;-73
2022/03/21 18:14:52;;;;;;;50.63;28.15;;;;;;;7.41;24.24;102183.06;4987708;28;106069;-74
2022/03/21 18:17:17;;;;;;;42.90;23.38;;;;;;;7.34;24.53;102188.84;4988255;28;106521;-73
2022/03/21 18:19:46;;;;;;;30.85;18.50;;;;;;;7.26;24.38;102189.38;4987247;28;106184;-74
2022/03/21 18:22:13;;;;;;;35.72;18.83;;;;;;;7.19;24.55;102182.75;4987067;28;106724;-76
2022/03/21 18:24:40;;;;;;;35.22;21.52;;;;;;;7.14;24.61;102188.34;4987074;28;106027;-75
2022/03/21 18:27:07;;;;;;;40.38;20.10;;;;;;;7.08;24.81;102189.59;4987771;28;106037;-72
2022/03/21 18:29:33;;;;;;;39.45;19.05;;;;;;;7.02;25.19;102191.78;4987390;28;106150;-72
2022/03/21 18:31:59;;;;;;;35.72;18.40;;;;;;;6.92;25.44;102186.22;4987108;28;105878;-74
2022/03/21 18:34:25;;;;;;;46.97;21.20;;;;;;;6.85;25.43;102195.50;4987296;28;106346;-74
2022/03/21 18:36:50;;;;;;;42.85;22.13;;;;;;;6.77;25.60;102194.19;4988073;28;106384;-75
2022/03/21 18:39:16;;;;;;;41.20;22.77;;;;;;;6.70;26.21;102192.88;4987203;28;106249;-75
2022/03/21 18:41:42;;;;;;;70.47;30.08;;;;;;;6.64;25.89;102198.53;4987524;28;105975;-74
2022/03/21 18:44:08;;;;;;;51.42;23.98;;;;;;;6.55;26.46;102207.91;4987418;28;105929;-74
2022/03/21 18:46:33;;;;;;;56.50;29.20;;;;;;;6.52;26.55;102204.59;4988186;28;105834;-74
2022/03/21 18:48:58;;;;;;;52.63;25.80;;;;;;;6.52;26.40;102207.25;4987983;28;106230;-74
2022/03/21 18:51:24;;;;;;;41.15;24.55;;;;;;;6.52;26.29;102208.09;4986872;28;106880;-74
2022/03/21 18:53:50;;;;;;;42.35;23.67;;;;;;;6.50;26.41;102201.19;4987266;28;106101;-75
2022/03/21 18:56:16;;;;;;;41.38;22.83;;;;;;;6.50;26.43;102215.28;4988057;28;106338;-77
2022/03/21 18:58:41;;;;;;;34.97;21.25;;;;;;;6.54;26.30;102208.00;4987098;28;106495;-75
2022/03/21 19:01:07;;;;;;;38.78;22.40;;;;;;;6.59;26.00;102220.03;4987229;28;106306;-77
2022/03/21 19:03:37;;;;;;;47.28;23.08;;;;;;;6.60;26.25;102220.84;4987356;28;105958;-75
2022/03/21 19:06:03;;;;;;;39.42;23.98;;;;;;;6.58;26.05;102215.66;4988064;28;106018;-74
2022/03/21 19:08:30;;;;;;;54.47;29.85;;;;;;;6.56;26.38;102216.69;4987138;28;106182;-73
2022/03/21 19:10:55;;;;;;;57.20;29.35;;;;;;;6.55;26.24;102215.84;4987041;28;106702;-77
2022/03/21 19:13:21;;;;;;;51.75;27.95;;;;;;;6.49;26.27;102220.69;4986876;28;105674;-72
2022/03/21 19:15:46;;;;;;;50.80;28.08;;;;;;;6.40;26.68;102228.22;4987802;28;105818;-73
2022/03/21 19:18:11;;;;;;;51.33;28.60;;;;;;;6.35;26.60;102227.66;4987360;28;106167;-72
2022/03/21 19:20:37;;;;;;;49.22;26.13;;;;;;;6.28;26.98;102222.84;4986971;28;106263;-73
2022/03/21 19:23:02;;;;;;;50.30;25.27;;;;;;;6.21;27.08;102227.66;4986484;28;109362;-71
2022/03/21 19:25:29;;;;;;;52.25;27.08;;;;;;;6.14;27.64;102226.28;4989324;28;105964;-72
2022/03/21 19:27:54;;;;;;;55.15;25.33;;;;;;;6.05;27.85;102223.25;4990681;28;106292;-73
2022/03/21 19:30:20;;;;;;;56.03;27.27;;;;;;;5.98;27.55;102229.84;4988207;28;108403;-72
2022/03/21 19:32:46;;;;;;;62.53;27.83;;;;;;;5.90;27.99;102232.06;4989681;28;106072;-71
2022/03/21 19:35:15;;;;;;;61.45;27.27;;;;;;;5.81;28.30;102224.66;4990590;28;106059;-72
2022/03/21 19:37:40;;;;;;;62.42;31.25;;;;;;;5.74;28.40;102224.16;4989096;28;105774;-71
2022/03/21 19:40:06;;;;;;;64.82;30.27;;;;;;;5.70;28.07;102233.22;4989363;28;117469;-72
2022/03/21 19:42:40;;;;;;;61.15;31.77;;;;;;;5.65;28.18;102230.84;4990149;28;105963;-72
2022/03/21 19:45:09;;;;;;;67.60;33.83;;;;;;;5.59;28.52;102231.19;4990719;28;105871;-72
2022/03/21 19:47:38;;;;;;;62.90;31.50;;;;;;;5.55;28.24;102229.63;4990152;28;106455;-72
2022/03/21 19:50:05;;;;;;;64.57;30.60;;;;;;;5.51;28.58;102228.13;4989715;28;105919;-72
2022/03/21 19:52:31;;;;;;;55.65;26.80;;;;;;;5.48;28.43;102231.81;4989637;28;106062;-73
2022/03/21 19:54:56;;;;;;;44.67;26.08;;;;;;;5.43;28.63;102232.06;4991017;28;105947;-71
2022/03/21 19:57:22;;;;;;;47.75;25.42;;;;;;;5.39;28.72;102234.97;4990318;28;105827;-71
2022/03/21 19:59:47;;;;;;;43.08;24.65;;;;;;;5.32;28.67;102225.69;4988806;28;125395;-72
2022/03/21 20:02:13;;;;;;;51.22;25.77;;;;;;;5.27;28.82;102235.66;4988832;28;121750;-72
2022/03/21 20:04:38;;;;;;;48.35;26.23;;;;;;;5.21;28.92;102231.56;4990388;28;106067;-72
2022/03/21 20:07:03;;;;;;;45.55;24.85;;;;;;;5.16;28.90;102245.00;4989754;28;107074;-72
2022/03/21 20:09:29;;;;;;;52.50;28.88;;;;;;;5.12;29.22;102235.56;4989884;28;106159;-73
2022/03/21 20:11:54;;;;;;;62.53;29.75;;;;;;;5.05;29.01;102242.13;4989690;28;108956;-73
2022/03/21 20:14:20;;;;;;;55.22;28.23;;;;;;;4.98;30.11;102238.13;4990594;28;105819;-73
2022/03/21 20:16:45;;;;;;;61.67;28.85;;;;;;;4.92;30.28;102231.34;4990192;28;106234;-73
2022/03/21 20:19:11;;;;;;;54.35;29.30;;;;;;;4.88;30.34;102235.09;4989779;28;106075;-73
2022/03/21 20:21:36;;;;;;;63.13;29.42;;;;;;;4.82;30.89;102232.78;4989721;28;106385;-73
2022/03/21 20:24:01;;;;;;;64.18;27.33;;;;;;;4.75;30.77;102238.38;4990967;28;106486;-72
2022/03/21 20:26:27;;;;;;;58.92;28.65;;;;;;;4.68;31.45;102228.25;4989808;28;106234;-73
2022/03/21 20:28:52;;;;;;;64.53;29.10;;;;;;;4.62;31.44;102233.84;4988733;28;106736;-73
2022/03/21 20:31:18;;;;;;;64.13;27.55;;;;;;;4.57;30.95;102231.47;4989085;28;120532;-73
2022/03/21 20:33:44;;;;;;;60.10;28.20;;;;;;;4.52;31.50;102234.31;4990330;28;106444;-73
2022/03/21 20:36:11;;;;;;;62.38;27.38;;;;;;;4.48;31.70;102232.78;4989518;28;106179;-73
2022/03/21 20:38:37;;;;;;;62.80;26.52;;;;;;;4.41;31.54;102231.41;4988595;28;106528;-73
2022/03/21 20:41:03;;;;;;;70.03;28.58;;;;;;;4.33;31.74;102226.56;4989152;28;105818;-72
2022/03/21 20:43:28;;;;;;;72.15;30.42;;;;;;;4.27;32.25;102234.75;4989960;28;105810;-73
2022/03/21 20:45:54;;;;;;;62.60;30.00;;;;;;;4.23;32.06;102234.06;4989674;28;106249;-73
2022/03/21 20:48:19;;;;;;;64.00;28.70;;;;;;;4.15;32.02;102225.69;4989147;28;105945;-73
2022/03/21 20:50:44;;;;;;;65.20;30.67;;;;;;;4.08;32.22;102224.31;4989034;28;113256;-73
2022/03/21 20:53:10;;;;;;;71.85;28.35;;;;;;;4.02;32.46;102233.38;4988373;28;106093;-72
2022/03/21 20:55:35;;;;;;;61.38;28.75;;;;;;;3.97;32.36;102227.47;4989664;28;106162;-74
2022/03/21 20:58:01;;;;;;;62.30;26.35;;;;;;;3.93;31.95;102236.47;4988996;28;105959;-73
2022/03/21 21:00:31;;;;;;;59.05;28.80;;;;;;;3.86;32.61;102229.81;4988962;28;106016;-73
2022/03/21 21:03:03;;;;;;;74.78;30.70;;;;;;;3.81;32.50;102237.09;4989719;28;105955;-74
2022/03/21 21:05:29;;;;;;;61.47;31.75;;;;;;;3.76;32.50;102236.44;4988767;28;106165;-73
2022/03/21 21:07:55;;;;;;;61.58;32.05;;;;;;;3.70;32.31;102241.13;4988539;28;106684;-73
2022/03/21 21:13:05;;;;;;;117.82;64.80;;;;;;;3.58;32.78;102244.31;4989861;28;105929;-73
2022/03/21 21:15:31;;;;;;;69.05;33.95;;;;;;;3.54;32.60;102246.28;4988358;28;105819;-73
2022/03/21 21:17:57;;;;;;;57.55;29.98;;;;;;;3.51;32.59;102245.56;4988605;28;105971;-73
2022/03/21 21:20:26;;;;;;;57.90;31.80;;;;;;;3.47;32.64;102246.63;4988197;28;106634;-74
2022/03/21 21:22:54;;;;;;;66.10;32.28;;;;;;;3.42;33.00;102246.84;4989271;28;105985;-72
2022/03/21 21:25:21;;;;;;;57.75;32.17;;;;;;;3.39;33.00;102247.00;4988608;28;106170;-71
2022/03/21 21:27:47;;;;;;;82.70;36.47;;;;;;;3.35;32.94;102246.28;4988282;28;105983;-72
2022/03/21 21:30:12;;;;;;;79.47;38.45;;;;;;;3.32;32.80;102246.44;4988371;28;106012;-72
2022/03/21 21:32:38;;;;;;;73.03;35.13;;;;;;;3.29;33.06;102248.38;4988802;28;105852;-73
2022/03/21 21:35:03;;;;;;;62.78;34.55;;;;;;;3.26;33.32;102251.16;4988255;28;106112;-72
2022/03/21 21:37:29;;;;;;;59.90;32.83;;;;;;;3.31;32.84;102247.38;4987867;28;107687;-72
2022/03/21 21:39:54;;;;;;;60.63;31.85;;;;;;;3.34;32.99;102246.38;4988278;28;105801;-72
2022/03/21 21:42:20;;;;;;;67.22;34.20;;;;;;;3.34;33.08;102249.00;4988530;28;105878;-72
2022/03/21 21:44:45;;;;;;;74.57;37.50;;;;;;;3.34;33.07;102249.84;4988455;28;106130;-72
2022/03/21 21:47:10;;;;;;;81.32;37.00;;;;;;;3.25;33.27;102242.38;4987234;28;106580;-73
2022/03/21 21:49:37;;;;;;;75.35;35.75;;;;;;;3.18;33.36;102254.13;4988301;28;106318;-73
2022/03/21 21:52:03;;;;;;;77.80;37.33;;;;;;;3.13;33.15;102249.09;4988657;28;105951;-74
2022/03/21 21:54:28;;;;;;;80.78;36.40;;;;;;;3.11;33.61;102252.72;4988498;28;106238;-71
2022/03/21 21:56:55;;;;;;;70.82;34.40;;;;;;;3.07;33.45;102256.41;4988406;28;106084;-72
2022/03/21 21:59:21;;;;;;;63.60;32.88;;;;;;;3.03;33.41;102248.66;4987832;28;105965;-73
2022/03/21 22:01:47;;;;;;;67.32;34.17;;;;;;;2.99;33.51;102249.72;4988542;28;105997;-73
2022/03/21 22:04:13;;;;;;;72.05;35.28;;;;;;;2.96;33.83;102244.59;4988260;28;105891;-72
2022/03/21 22:06:38;;;;;;;71.82;37.55;;;;;;;2.91;33.66;102251.81;4987731;28;107276;-71
2022/03/21 22:09:04;;;;;;;67.70;33.47;;;;;;;2.87;33.86;102245.88;4988163;28;106480;-72
2022/03/21 22:11:29;;;;;;;68.28;32.63;;;;;;;2.85;33.90;102252.13;4988962;28;106902;-74
2022/03/21 22:13:55;;;;;;;71.90;33.13;;;;;;;2.82;34.31;102247.00;4988547;28;105704;-73
2022/03/21 22:16:22;;;;;;;73.43;36.22;;;;;;;2.78;33.98;102245.44;4986788;28;105987;-74
2022/03/21 22:18:47;;;;;;;67.53;36.00;;;;;;;2.76;34.06;102255.16;4988227;28;106229;-73
2022/03/21 22:21:14;;;;;;;67.32;33.78;;;;;;;2.70;34.36;102253.66;4988886;28;105980;-75
2022/03/21 22:23:40;;;;;;;73.72;34.08;;;;;;;2.64;34.77;102249.53;4988229;28;106158;-73
2022/03/21 22:26:05;;;;;;;79.05;36.88;;;;;;;2.61;34.98;102251.44;4988089;28;105959;-72
2022/03/21 22:28:30;;;;;;;86.38;37.53;;;;;;;2.55;34.95;102255.19;4988086;28;105954;-74
2022/03/21 22:30:56;;;;;;;83.85;38.60;;;;;;;2.50;35.27;102252.78;4988722;28;105822;-72
2022/03/21 22:33:22;;;;;;;77.20;37.20;;;;;;;2.46;35.50;102256.47;4987982;28;106657;-73
2022/03/21 22:35:49;;;;;;;87.13;38.58;;;;;;;2.41;35.72;102260.22;4987631;28;106937;-73
2022/03/21 22:38:15;;;;;;;81.78;37.80;;;;;;;2.36;35.89;102263.91;4987135;28;106161;-73
2022/03/21 22:48:54;;;;;;;69.85;34.88;;;;;;;2.20;36.38;102260.19;4985613;28;106273;-72
2022/03/21 22:51:20;;;;;;;76.40;36.42;;;;;;;2.15;36.66;102259.56;4986164;28;106675;-71
2022/03/21 22:53:46;;;;;;;73.53;36.45;;;;;;;2.09;36.49;102255.41;4987941;28;106507;-71
2022/03/21 22:56:12;;;;;;;69.13;35.40;;;;;;;2.07;36.87;102253.75;4987817;28;106460;-73
2022/03/21 22:58:38;;;;;;;75.38;37.45;;;;;;;2.02;37.11;102254.81;4987798;28;105893;-74
2022/03/21 23:01:06;;;;;;;67.43;32.83;;;;;;;2.00;37.20;102258.41;4991413;28;105953;-72
2022/03/21 23:03:33;;;;;;;73.50;33.53;;;;;;;1.96;37.30;102249.78;4991894;28;105691;-73
2022/03/21 23:05:58;;;;;;;78.35;35.83;;;;;;;1.91;37.45;102251.75;5008197;28;105968;-75
2022/03/21 23:08:23;;;;;;;70.28;35.05;;;;;;;1.87;37.65;102260.69;5011310;28;105914;-72
2022/03/21 23:10:50;;;;;;;74.28;37.38;;;;;;;1.84;37.73;102255.56;5010270;28;106045;-73
2022/03/21 23:13:16;;;;;;;73.32;38.45;;;;;;;1.84;37.64;102252.94;5011470;28;106215;-74
2022/03/21 23:15:41;;;;;;;71.32;36.40;;;;;;;1.83;37.69;102254.72;5010663;28;106136;-72
2022/03/21 23:18:06;;;;;;;72.13;34.35;;;;;;;1.84;37.37;102248.50;5011185;28;105910;-76
2022/03/21 23:20:34;;;;;;;77.22;34.90;;;;;;;1.88;37.52;102249.25;5011529;28;105962;-72
2022/03/21 23:23:03;;;;;;;70.60;35.40;;;;;;;1.94;37.51;102253.41;5000779;28;105974;-72
2022/03/21 23:25:30;;;;;;;68.50;36.35;;;;;;;1.94;37.57;102254.28;4990486;28;106800;-72
2022/03/21 23:27:56;;;;;;;74.38;35.28;;;;;;;1.94;37.39;102256.03;4990565;28;106063;-73
2022/03/21 23:30:21;;;;;;;71.57;34.58;;;;;;;1.92;37.54;102253.47;4991514;28;105921;-76
2022/03/21 23:32:47;;;;;;;65.47;36.22;;;;;;;1.90;37.59;102252.69;4989784;28;106071;-72
2022/03/21 23:35:12;;;;;;;64.82;34.97;;;;;;;1.90;37.60;102252.69;4990833;28;106739;-75
2022/03/21 23:37:37;;;;;;;62.70;34.63;;;;;;;1.90;37.66;102250.06;4990382;28;106540;-74
2022/03/21 23:42:47;;;;;;;62.92;34.17;;;;;;;1.88;37.73;102249.25;4991367;28;106251;-74
2022/03/21 23:45:13;;;;;;;67.03;34.00;;;;;;;1.87;37.92;102252.78;4990538;28;111223;-72
2022/03/21 23:47:38;;;;;;;68.63;34.95;;;;;;;1.84;37.96;102242.41;4990688;28;106563;-73
2022/03/21 23:50:04;;;;;;;72.40;34.47;;;;;;;1.83;38.00;102251.22;4991148;28;106023;-73
2022/03/21 23:52:29;;;;;;;67.45;33.42;;;;;;;1.82;38.09;102249.53;4987240;28;106334;-72
2022/03/21 23:54:55;;;;;;;65.28;33.65;;;;;;;1.81;38.19;102250.44;4990647;28;105896;-72
2022/03/21 23:57:20;;;;;;;64.25;33.15;;;;;;;1.79;38.10;102250.50;4990247;28;117776;-72
2022/03/21 23:59:45;;;;;;;71.03;36.20;;;;;;;1.79;38.38;102254.88;4991023;28;106180;-73
